Other Surface Observations
Issued by NWS Missoula, MT

Home | Current Version | Previous Version | Text Only | Print | Product List | Glossary On
Versions: 1 2 3 4 5 6 7 8 9 10 11 12 13 14 15 16 17 18 19 20 21 22 23 24 25 26 27 28 29 30 31 32 33 34 35 36 37 38 39 40 41 42 43 44 45 46 47 48 49 50
000
SXUS55 KMSO 191203
OSOMSO
MONTANA AWOS SUMMARY
NATIONAL WEATHER SERVICE MISSOULA MT
603 AM MDT FRI SEP 19 2014

Montana AWOS Reports

LAUREL      |K6S8 191155Z AUTO 00000KT 40SM 14/09 A2987 RMK AO1 T01440094
ROUNDUP     |KRPX 191155Z AUTO 20006KT 40SM 13/08 A2976 RMK AO1 T01330078
MALTA       |KM75 191155Z AUTO 19004KT 40SM 11/07 A2967 RMK AO1 T01110072
SCOBEY      |K9S2 191155Z AUTO 00000KT 15SM 13/06 A2964 RMK AO1 T01280056
MALTA       |KM75 191055Z AUTO 00000KT 25SM 11/08 A2966 RMK AO1 T01110078
PLAINS      |KS34 191155Z AUTO 00000KT 40SM 19/08 A2995 RMK AO1 T01890078




USA.gov is the U.S. government's official web portal to all federal, state and local government web resources and services.